Time;durP1;ratioP1;P1;durP2;ratioP2;P2;SDS_P1;SDS_P2;PMS_P1;PMS_P2;Temp;Humidity;BMP_temperature;BMP_pressure;BME280_temperature;BME280_humidity;BME280_pressure;Samples;Min_cycle;Max_cycle;Signal;HPM_P1;HPM_P2
2021/07/27 04:02:11;;;;;;;7.17;6.60;;;18.30;99.90;;;;;;5151475;23;20509;-70
2021/07/27 04:04:38;;;;;;;7.20;6.60;;;18.20;99.90;;;;;;4937575;29;20817;-70
2021/07/27 04:07:05;;;;;;;6.53;6.13;;;18.30;99.90;;;;;;4936575;29;20528;-71
2021/07/27 04:09:31;;;;;;;6.23;5.83;;;18.20;99.90;;;;;;4937142;29;20865;-71
2021/07/27 04:11:58;;;;;;;7.13;6.73;;;18.20;99.90;;;;;;4921982;29;20490;-71
2021/07/27 04:14:24;;;;;;;7.43;6.73;;;18.20;99.90;;;;;;4918190;29;20470;-71
2021/07/27 04:16:51;;;;;;;9.00;6.80;;;18.30;99.90;;;;;;4916565;29;20522;-71
2021/07/27 04:19:19;;;;;;;6.90;6.33;;;18.30;99.90;;;;;;4917742;29;20467;-71
2021/07/27 04:21:46;;;;;;;6.30;6.00;;;18.40;99.90;;;;;;4917187;29;21325;-71
2021/07/27 04:24:12;;;;;;;6.77;6.27;;;18.30;99.90;;;;;;4917775;29;20471;-70
2021/07/27 04:26:39;;;;;;;6.43;5.93;;;18.40;99.90;;;;;;4908208;29;20474;-70
2021/07/27 04:29:05;;;;;;;6.37;6.07;;;18.40;99.90;;;;;;4917467;29;21002;-70
2021/07/27 04:31:32;;;;;;;6.43;5.93;;;18.40;99.90;;;;;;4916847;29;20485;-71
2021/07/27 04:33:59;;;;;;;6.50;6.00;;;18.50;99.90;;;;;;4918038;29;20473;-71
2021/07/27 04:36:27;;;;;;;6.10;5.70;;;18.50;99.90;;;;;;4917433;29;20466;-73
2021/07/27 04:38:53;;;;;;;6.83;6.23;;;18.50;99.90;;;;;;4917326;29;21024;-72
2021/07/27 04:41:20;;;;;;;6.13;5.53;;;18.60;99.90;;;;;;4915894;29;20494;-70
2021/07/27 04:43:46;;;;;;;7.13;6.50;;;18.60;99.90;;;;;;4916255;29;20974;-70
2021/07/27 04:46:13;;;;;;;6.90;6.20;;;18.70;99.90;;;;;;4916343;29;20526;-70
2021/07/27 04:48:40;;;;;;;6.60;6.17;;;18.80;99.90;;;;;;4916537;29;20549;-70
2021/07/27 04:51:06;;;;;;;6.30;5.90;;;19.00;99.90;;;;;;4917049;29;20527;-70
2021/07/27 04:53:36;;;;;;;5.70;5.40;;;19.20;99.90;;;;;;4916297;29;20542;-71
2021/07/27 04:56:03;;;;;;;6.10;5.70;;;19.30;99.90;;;;;;4915052;29;20534;-70
2021/07/27 04:58:30;;;;;;;6.20;5.80;;;19.40;99.90;;;;;;4916420;29;21018;-70
2021/07/27 05:01:01;;;;;;;6.00;5.67;;;19.50;99.90;;;;;;4916536;29;20589;-70
2021/07/27 05:03:28;;;;;;;6.57;5.63;;;19.60;99.90;;;;;;4916370;29;20542;-70
2021/07/27 05:05:54;;;;;;;6.37;5.87;;;19.90;99.90;;;;;;4916630;29;20467;-70
2021/07/27 05:08:21;;;;;;;6.00;5.60;;;20.20;99.90;;;;;;4915709;29;20483;-70
2021/07/27 05:10:49;;;;;;;5.87;5.43;;;20.30;99.90;;;;;;4916990;29;20491;-70
2021/07/27 05:13:16;;;;;;;7.40;6.90;;;20.40;99.90;;;;;;4916299;29;20471;-70
2021/07/27 05:15:42;;;;;;;7.20;6.90;;;20.50;99.90;;;;;;4911495;29;20573;-71
2021/07/27 05:18:09;;;;;;;7.10;6.60;;;20.70;99.90;;;;;;4916125;29;20868;-70
2021/07/27 05:20:36;;;;;;;7.13;6.67;;;20.80;99.90;;;;;;4916994;29;20490;-72
2021/07/27 05:23:02;;;;;;;5.27;5.00;;;20.90;99.90;;;;;;4915596;29;20462;-72
2021/07/27 05:25:29;;;;;;;6.30;5.90;;;21.00;99.90;;;;;;4916388;29;20839;-72
2021/07/27 05:27:57;;;;;;;6.03;5.73;;;21.00;99.90;;;;;;4916467;29;20480;-72
2021/07/27 05:30:24;;;;;;;7.37;6.00;;;21.10;99.90;;;;;;4916753;29;20828;-72
2021/07/27 05:32:50;;;;;;;5.57;5.17;;;21.30;99.90;;;;;;4915732;29;20849;-72
2021/07/27 05:35:17;;;;;;;5.83;5.43;;;21.50;99.90;;;;;;4916157;29;20518;-72
2021/07/27 05:37:44;;;;;;;5.97;5.57;;;21.50;99.90;;;;;;4916060;29;20466;-73
2021/07/27 05:40:12;;;;;;;7.27;6.80;;;21.50;99.90;;;;;;4916212;29;20454;-73
2021/07/27 05:42:38;;;;;;;6.30;5.80;;;21.50;99.90;;;;;;4915710;29;20470;-72
2021/07/27 05:45:07;;;;;;;6.40;6.00;;;21.40;99.90;;;;;;4916353;29;20469;-71
2021/07/27 05:47:33;;;;;;;6.70;6.23;;;21.40;99.90;;;;;;4915565;29;20522;-71
2021/07/27 05:50:00;;;;;;;6.50;6.10;;;21.40;99.90;;;;;;4916148;29;20525;-71
2021/07/27 05:52:27;;;;;;;7.20;6.77;;;21.30;99.90;;;;;;4915597;29;20498;-71
2021/07/27 05:54:53;;;;;;;6.70;6.13;;;21.30;99.90;;;;;;4915792;29;20466;-72
2021/07/27 05:57:20;;;;;;;6.77;6.23;;;21.40;99.90;;;;;;4916463;29;20482;-72
2021/07/27 05:59:46;;;;;;;5.87;5.57;;;21.80;99.90;;;;;;4916994;29;20458;-73
2021/07/27 06:02:16;;;;;;;6.87;6.40;;;22.30;99.90;;;;;;4915224;29;20490;-73
2021/07/27 06:04:42;;;;;;;5.70;5.40;;;22.70;99.90;;;;;;4914108;29;20609;-73
2021/07/27 06:07:09;;;;;;;5.73;5.40;;;23.40;99.90;;;;;;4916059;29;20482;-72
2021/07/27 06:09:36;;;;;;;5.00;4.80;;;23.90;99.90;;;;;;4916169;29;20987;-72
2021/07/27 06:12:03;;;;;;;4.80;4.60;;;24.40;99.90;;;;;;4916027;29;20495;-72
2021/07/27 06:14:29;;;;;;;5.70;5.40;;;24.90;99.90;;;;;;4916702;29;20831;-71
2021/07/27 06:16:56;;;;;;;6.00;5.60;;;25.60;99.90;;;;;;4915797;29;20481;-71
2021/07/27 06:19:25;;;;;;;6.13;5.77;;;26.00;99.90;;;;;;4915626;29;20552;-70
2021/07/27 06:21:52;;;;;;;5.97;5.47;;;26.00;99.90;;;;;;4915458;29;20500;-70
2021/07/27 06:24:18;;;;;;;5.50;5.30;;;25.90;99.90;;;;;;4915471;29;20476;-70
2021/07/27 06:26:45;;;;;;;5.50;5.20;;;26.30;99.90;;;;;;4915811;29;21413;-70
2021/07/27 06:29:12;;;;;;;4.67;4.47;;;26.70;99.90;;;;;;4915993;29;20489;-70
2021/07/27 06:31:38;;;;;;;6.30;5.90;;;26.90;99.90;;;;;;4915138;29;21028;-71
2021/07/27 06:34:05;;;;;;;5.53;5.33;;;26.70;99.90;;;;;;4915505;29;20491;-71
2021/07/27 06:36:33;;;;;;;5.53;5.33;;;26.70;99.90;;;;;;4910246;29;20488;-71
2021/07/27 06:39:00;;;;;;;5.87;5.53;;;26.90;99.90;;;;;;4917661;29;20505;-72
2021/07/27 06:41:26;;;;;;;5.90;5.50;;;27.40;99.90;;;;;;4919430;29;20489;-72
2021/07/27 06:43:53;;;;;;;6.07;5.77;;;27.80;99.90;;;;;;4919298;29;20469;-72
2021/07/27 06:46:19;;;;;;;5.50;5.20;;;28.40;99.90;;;;;;4919137;29;20478;-70
2021/07/27 06:48:46;;;;;;;5.67;5.37;;;28.80;99.90;;;;;;4918593;29;20493;-71
2021/07/27 06:51:15;;;;;;;5.75;5.40;;;29.10;99.90;;;;;;4918300;29;20514;-70
2021/07/27 06:53:44;;;;;;;4.83;4.60;;;29.10;99.90;;;;;;4918328;29;20209;-71
2021/07/27 06:56:12;;;;;;;5.20;5.00;;;29.10;99.90;;;;;;4919283;29;20891;-71
2021/07/27 06:58:40;;;;;;;6.20;5.90;;;29.30;99.90;;;;;;4918814;29;20474;-71
2021/07/27 07:01:07;;;;;;;5.20;5.00;;;29.70;99.90;;;;;;4918825;29;21069;-70
2021/07/27 07:03:34;;;;;;;5.37;5.07;;;29.60;99.90;;;;;;4917777;29;20471;-70
2021/07/27 07:06:01;;;;;;;5.00;4.80;;;29.30;99.90;;;;;;4918307;29;20569;-71
2021/07/27 07:08:27;;;;;;;5.47;5.17;;;29.40;99.90;;;;;;4918203;29;20533;-71
2021/07/27 07:10:57;;;;;;;5.00;4.83;;;29.30;99.90;;;;;;4918314;29;20560;-71
2021/07/27 07:13:24;;;;;;;5.00;4.80;;;29.10;99.90;;;;;;4918113;29;20492;-70
2021/07/27 07:15:51;;;;;;;5.60;5.30;;;29.10;99.90;;;;;;4919012;29;20473;-70
2021/07/27 07:18:18;;;;;;;5.17;4.97;;;29.30;99.90;;;;;;4917897;29;20474;-70
2021/07/27 07:20:44;;;;;;;5.87;5.57;;;29.60;99.90;;;;;;4919509;29;20997;-71
2021/07/27 07:23:11;;;;;;;5.60;5.30;;;29.20;99.90;;;;;;4918070;29;20468;-70
2021/07/27 07:25:42;;;;;;;5.80;5.60;;;29.20;99.90;;;;;;4909397;29;20476;-71
2021/07/27 07:28:11;;;;;;;5.70;5.40;;;29.80;99.90;;;;;;4917564;29;20663;-71
2021/07/27 07:30:38;;;;;;;5.97;5.77;;;29.90;99.90;;;;;;4917969;29;20573;-70
2021/07/27 07:33:05;;;;;;;5.23;5.00;;;30.10;99.90;;;;;;4917675;29;20474;-71
2021/07/27 07:35:32;;;;;;;6.87;6.47;;;30.00;99.90;;;;;;4918429;29;20463;-71
2021/07/27 07:37:59;;;;;;;5.30;5.00;;;29.50;99.90;;;;;;4917666;29;20506;-72
2021/07/27 07:40:26;;;;;;;5.30;5.00;;;28.90;99.90;;;;;;4918693;29;20509;-71
2021/07/27 07:42:52;;;;;;;4.80;4.70;;;28.60;99.90;;;;;;4917698;29;20544;-71
2021/07/27 07:45:20;;;;;;;6.10;5.80;;;28.80;99.90;;;;;;4919484;29;20469;-72
2021/07/27 07:47:48;;;;;;;5.67;5.37;;;28.80;99.90;;;;;;4917983;29;20465;-71
2021/07/27 07:50:15;;;;;;;6.07;5.67;;;28.30;99.90;;;;;;4917969;29;20493;-71
2021/07/27 07:52:41;;;;;;;5.57;5.17;;;28.30;99.90;;;;;;4917873;29;20528;-70
2021/07/27 07:55:09;;;;;;;5.07;4.87;;;28.50;99.90;;;;;;4918511;29;21057;-70
2021/07/27 07:57:37;;;;;;;5.00;4.70;;;28.50;99.90;;;;;;4918150;29;20473;-70
2021/07/27 08:00:05;;;;;;;5.77;5.47;;;28.70;99.90;;;;;;4918344;29;20563;-70
2021/07/27 08:02:33;;;;;;;5.13;4.90;;;28.70;99.90;;;;;;4915386;29;20863;-70
2021/07/27 08:04:59;;;;;;;5.77;5.30;;;29.00;99.90;;;;;;4916104;29;20525;-70
2021/07/27 08:07:26;;;;;;;5.70;5.47;;;29.30;99.90;;;;;;4917459;29;20478;-70
2021/07/27 08:09:53;;;;;;;6.00;5.60;;;29.50;99.90;;;;;;4918404;29;20875;-70
2021/07/27 08:12:19;;;;;;;5.70;5.40;;;29.20;99.90;;;;;;4918883;29;20490;-70
2021/07/27 08:14:46;;;;;;;5.60;5.30;;;28.80;99.90;;;;;;4918384;29;20526;-70
2021/07/27 08:17:12;;;;;;;5.50;5.30;;;28.50;99.90;;;;;;4918864;29;20473;-69
2021/07/27 08:19:40;;;;;;;5.00;4.80;;;28.10;99.90;;;;;;4918795;29;20634;-69
2021/07/27 08:22:07;;;;;;;7.00;6.60;;;27.30;99.90;;;;;;4922851;29;20512;-69
2021/07/27 08:24:36;;;;;;;5.63;5.43;;;26.70;99.90;;;;;;4922225;29;20463;-69
2021/07/27 08:27:07;;;;;;;6.50;6.20;;;26.20;99.90;;;;;;4922311;29;20474;-69
2021/07/27 08:29:34;;;;;;;6.00;5.80;;;26.00;99.90;;;;;;4922784;29;20507;-69
2021/07/27 08:32:05;;;;;;;6.00;5.67;;;25.80;99.90;;;;;;4911534;29;20936;-70
2021/07/27 08:34:35;;;;;;;5.70;5.40;;;25.60;99.90;;;;;;4905161;29;20484;-69
2021/07/27 08:37:03;;;;;;;6.47;6.13;;;25.60;99.90;;;;;;4914428;29;20480;-69
2021/07/27 08:39:30;;;;;;;5.83;5.53;;;25.30;99.90;;;;;;4913634;29;20914;-70
2021/07/27 08:42:00;;;;;;;6.50;6.10;;;25.20;99.90;;;;;;4914548;29;20495;-69
2021/07/27 08:44:29;;;;;;;5.23;5.03;;;25.10;99.90;;;;;;4914191;29;20471;-69
2021/07/27 08:46:58;;;;;;;5.70;5.50;;;25.00;99.90;;;;;;4913487;29;20471;-69
2021/07/27 08:49:24;;;;;;;6.07;5.87;;;25.10;99.90;;;;;;4912760;29;20522;-69
2021/07/27 08:51:51;;;;;;;5.67;5.37;;;25.50;99.90;;;;;;4913361;29;21142;-69
2021/07/27 08:54:19;;;;;;;5.97;5.57;;;25.80;99.90;;;;;;4912514;29;20471;-69
2021/07/27 08:56:46;;;;;;;5.60;5.40;;;25.60;99.90;;;;;;4913051;29;20488;-69
2021/07/27 08:59:13;;;;;;;5.70;5.40;;;25.30;99.90;;;;;;4901793;29;20574;-69
2021/07/27 09:01:40;;;;;;;5.90;5.67;;;25.30;99.90;;;;;;4912006;29;20921;-69
2021/07/27 09:04:06;;;;;;;6.23;5.93;;;25.00;99.90;;;;;;4910459;29;21308;-69
2021/07/27 09:06:33;;;;;;;7.87;7.27;;;24.60;99.90;;;;;;4913457;29;20470;-69
2021/07/27 09:09:07;;;;;;;7.00;6.60;;;24.30;99.90;;;;;;4912653;29;20471;-69
2021/07/27 09:11:45;;;;;;;7.20;6.80;;;23.90;99.90;;;;;;4913670;29;20556;-68
2021/07/27 09:14:15;;;;;;;7.57;6.97;;;23.60;99.90;;;;;;4912870;29;20486;-69
2021/07/27 09:16:45;;;;;;;7.60;7.10;;;23.40;99.90;;;;;;4912834;29;20466;-68
2021/07/27 09:19:12;;;;;;;7.53;7.13;;;23.20;99.90;;;;;;4911162;29;20478;-68
2021/07/27 09:21:40;;;;;;;7.87;7.37;;;22.90;99.90;;;;;;4908797;29;20482;-69
2021/07/27 09:24:07;;;;;;;8.80;8.20;;;22.80;99.90;;;;;;4912325;29;20518;-69
2021/07/27 09:26:35;;;;;;;8.57;8.07;;;22.80;99.90;;;;;;4913678;29;20466;-69
2021/07/27 09:29:03;;;;;;;8.33;7.83;;;22.80;99.90;;;;;;4912602;29;20466;-69
2021/07/27 09:31:30;;;;;;;8.33;7.73;;;22.90;99.90;;;;;;4911292;29;20697;-69
2021/07/27 09:33:56;;;;;;;8.37;7.87;;;23.00;99.90;;;;;;4897036;29;20470;-68
2021/07/27 09:36:25;;;;;;;8.97;8.47;;;22.90;99.90;;;;;;4913582;29;20800;-68
2021/07/27 09:39:03;;;;;;;8.97;8.27;;;23.10;99.90;;;;;;4909447;29;20478;-68
2021/07/27 09:41:30;;;;;;;7.47;7.07;;;23.00;99.90;;;;;;4922350;29;20584;-68
2021/07/27 09:43:59;;;;;;;7.43;6.70;;;23.00;99.90;;;;;;4913223;29;20505;-68
2021/07/27 09:46:25;;;;;;;7.60;7.10;;;23.10;99.90;;;;;;4928974;29;20471;-68
2021/07/27 09:48:53;;;;;;;6.93;6.53;;;23.20;99.90;;;;;;4911917;29;20514;-68
2021/07/27 09:51:20;;;;;;;8.37;7.73;;;23.20;99.90;;;;;;4913007;29;20569;-68
2021/07/27 09:53:47;;;;;;;7.63;7.13;;;23.30;99.90;;;;;;4911270;29;20486;-67
2021/07/27 09:56:14;;;;;;;7.40;6.90;;;23.40;99.90;;;;;;4914733;29;21014;-67
2021/07/27 09:58:42;;;;;;;8.23;7.63;;;23.50;99.90;;;;;;4912157;29;20474;-67
2021/07/27 10:01:13;;;;;;;7.53;7.03;;;23.60;99.90;;;;;;4911664;29;20502;-68
2021/07/27 10:03:49;;;;;;;9.60;8.90;;;23.70;99.90;;;;;;4911392;29;20474;-68
2021/07/27 10:06:23;;;;;;;9.07;8.33;;;23.70;99.90;;;;;;4912416;29;20485;-68
2021/07/27 10:08:55;;;;;;;9.50;8.73;;;23.60;99.90;;;;;;4909087;29;20470;-68
2021/07/27 10:11:34;;;;;;;10.10;9.30;;;23.40;99.90;;;;;;4914604;29;21002;-68
2021/07/27 10:14:05;;;;;;;10.30;8.40;;;23.10;99.90;;;;;;4910757;29;20541;-68
2021/07/27 10:16:33;;;;;;;8.00;7.50;;;23.00;99.90;;;;;;4912054;29;20482;-68
2021/07/27 10:19:12;;;;;;;9.20;8.50;;;22.90;99.90;;;;;;4912585;29;20935;-69
2021/07/27 10:21:38;;;;;;;9.60;8.80;;;23.00;99.90;;;;;;4911482;29;20517;-68
2021/07/27 10:24:12;;;;;;;8.63;8.10;;;23.10;99.90;;;;;;4912114;29;20899;-69
2021/07/27 10:26:38;;;;;;;8.87;8.30;;;23.20;99.90;;;;;;4915285;29;20490;-68
2021/07/27 10:29:05;;;;;;;7.97;7.37;;;23.40;99.90;;;;;;4914718;29;20462;-68
2021/07/27 10:31:34;;;;;;;8.33;7.83;;;23.50;99.90;;;;;;4914977;29;20824;-68
2021/07/27 10:34:02;;;;;;;7.37;6.97;;;23.70;99.90;;;;;;4913728;29;20467;-70
2021/07/27 10:36:32;;;;;;;7.47;6.77;;;23.70;99.90;;;;;;4913930;29;20470;-68
2021/07/27 10:39:07;;;;;;;7.90;7.40;;;23.80;99.90;;;;;;4914299;29;20605;-68
2021/07/27 10:41:37;;;;;;;8.23;7.63;;;23.90;99.90;;;;;;4909380;29;20479;-69
2021/07/27 10:44:11;;;;;;;7.57;6.97;;;23.90;99.90;;;;;;4904646;29;20469;-68
2021/07/27 10:46:41;;;;;;;8.27;7.50;;;24.00;99.90;;;;;;4905101;29;20454;-69
2021/07/27 10:49:16;;;;;;;7.27;6.80;;;24.20;99.90;;;;;;4910151;29;20486;-69
2021/07/27 10:51:46;;;;;;;7.00;6.50;;;24.50;99.90;;;;;;4914787;29;20515;-70
2021/07/27 10:54:14;;;;;;;6.93;6.53;;;24.50;99.90;;;;;;4914008;29;20502;-69
2021/07/27 10:56:48;;;;;;;7.30;6.90;;;24.50;99.90;;;;;;4914828;29;20470;-69
2021/07/27 10:59:20;;;;;;;7.60;7.07;;;24.50;99.90;;;;;;4896088;29;20482;-69
2021/07/27 11:01:48;;;;;;;7.40;7.00;;;24.40;99.90;;;;;;4913900;29;20545;-70
2021/07/27 11:04:15;;;;;;;7.60;7.00;;;24.40;99.90;;;;;;4914446;29;20466;-69
2021/07/27 11:06:42;;;;;;;7.90;7.23;;;24.30;99.90;;;;;;4914648;29;20470;-70
2021/07/27 11:09:11;;;;;;;7.47;6.97;;;24.30;99.90;;;;;;4914541;29;20935;-69
2021/07/27 11:11:45;;;;;;;8.17;7.60;;;24.40;99.90;;;;;;4914317;29;20502;-69
2021/07/27 11:14:19;;;;;;;8.33;7.67;;;24.50;99.90;;;;;;4902828;29;20459;-70
2021/07/27 11:16:45;;;;;;;7.60;7.00;;;24.60;99.90;;;;;;4910479;29;20556;-71
2021/07/27 11:19:24;;;;;;;7.87;7.37;;;24.80;99.90;;;;;;4914282;29;20469;-71
2021/07/27 11:21:51;;;;;;;8.20;7.60;;;25.00;99.90;;;;;;4915538;29;20521;-71
2021/07/27 11:24:18;;;;;;;7.20;6.80;;;25.00;99.90;;;;;;4914407;29;20868;-70
2021/07/27 11:26:50;;;;;;;7.60;6.80;;;25.00;99.90;;;;;;4917486;29;20517;-71
2021/07/27 11:29:18;;;;;;;7.33;6.77;;;25.00;99.90;;;;;;4918235;29;20458;-70
2021/07/27 11:31:46;;;;;;;7.23;6.83;;;25.20;99.90;;;;;;4917561;29;20502;-70
2021/07/27 11:34:14;;;;;;;6.40;6.00;;;25.30;99.90;;;;;;4917484;29;20514;-70
2021/07/27 11:36:51;;;;;;;7.20;6.73;;;25.40;99.90;;;;;;4917256;29;20557;-70
2021/07/27 11:39:19;;;;;;;7.00;6.50;;;25.50;99.90;;;;;;4907707;29;20917;-70
2021/07/27 11:41:56;;;;;;;6.27;5.87;;;25.40;99.90;;;;;;4918563;29;20478;-70
2021/07/27 11:44:23;;;;;;;6.87;6.37;;;25.50;99.90;;;;;;4915705;29;20465;-70
2021/07/27 11:46:52;;;;;;;7.90;7.20;;;25.60;99.90;;;;;;4917079;29;20466;-71
2021/07/27 11:49:20;;;;;;;7.10;6.70;;;25.60;99.90;;;;;;4917001;29;20546;-70
2021/07/27 11:51:46;;;;;;;8.80;8.07;;;25.40;99.90;;;;;;4918280;29;20502;-70
2021/07/27 11:54:24;;;;;;;7.87;7.27;;;25.40;99.90;;;;;;4917423;29;20541;-70
2021/07/27 11:56:50;;;;;;;8.70;8.10;;;25.50;99.90;;;;;;4906083;29;20471;-70
2021/07/27 11:59:25;;;;;;;9.07;8.40;;;25.50;99.90;;;;;;4917216;29;20467;-70
2021/07/27 12:01:52;;;;;;;8.40;7.80;;;25.60;99.90;;;;;;4917511;29;20561;-70
2021/07/27 12:04:20;;;;;;;8.03;7.50;;;25.70;99.90;;;;;;4917384;29;20526;-70
2021/07/27 12:06:49;;;;;;;9.10;8.40;;;25.80;99.90;;;;;;4913695;29;20486;-69
2021/07/27 12:09:16;;;;;;;9.07;8.40;;;25.80;99.90;;;;;;4917294;29;20844;-69
2021/07/27 12:11:43;;;;;;;8.30;7.67;;;25.70;99.90;;;;;;4917037;29;20487;-68
2021/07/27 12:14:10;;;;;;;8.50;7.97;;;25.70;99.90;;;;;;4916877;29;20471;-68
2021/07/27 12:16:37;;;;;;;10.50;8.77;;;25.70;99.90;;;;;;4917192;29;20545;-69
2021/07/27 12:19:04;;;;;;;8.20;7.70;;;25.70;99.90;;;;;;4917216;29;20476;-69
2021/07/27 12:21:32;;;;;;;9.53;8.83;;;25.70;99.90;;;;;;4916578;29;20578;-69
2021/07/27 12:23:58;;;;;;;11.50;10.50;;;25.60;99.90;;;;;;4910217;29;20476;-69
2021/07/27 12:26:25;;;;;;;9.00;8.47;;;25.60;99.90;;;;;;4916805;29;20504;-69
2021/07/27 12:28:52;;;;;;;8.87;7.97;;;25.40;99.90;;;;;;4916556;29;20526;-69
2021/07/27 12:31:18;;;;;;;8.93;8.20;;;25.30;99.90;;;;;;4917654;29;20522;-69
2021/07/27 12:33:45;;;;;;;9.10;8.40;;;25.40;99.90;;;;;;4909533;29;20530;-68
2021/07/27 12:36:12;;;;;;;6.77;6.37;;;25.50;99.90;;;;;;4916147;29;20470;-68
2021/07/27 12:38:40;;;;;;;7.20;6.73;;;25.70;99.90;;;;;;4916184;29;20564;-69
2021/07/27 12:41:06;;;;;;;7.33;6.90;;;25.80;99.90;;;;;;4916865;29;20482;-69
2021/07/27 12:43:33;;;;;;;7.10;6.60;;;25.80;99.90;;;;;;4915519;29;20490;-69
2021/07/27 12:46:00;;;;;;;6.47;6.07;;;25.70;99.90;;;;;;4916325;29;20473;-69
2021/07/27 12:48:26;;;;;;;7.93;7.23;;;25.70;99.90;;;;;;4915421;29;21184;-68
2021/07/27 12:50:53;;;;;;;7.50;7.07;;;25.80;99.90;;;;;;4915586;29;20967;-68
2021/07/27 12:53:22;;;;;;;6.60;6.20;;;25.80;99.90;;;;;;4915544;29;20475;-69
2021/07/27 12:55:51;;;;;;;8.30;7.63;;;25.90;99.90;;;;;;4916336;29;20946;-69
2021/07/27 12:58:18;;;;;;;7.67;7.17;;;25.90;99.90;;;;;;4915131;29;20473;-69
2021/07/27 13:00:44;;;;;;;8.00;7.50;;;25.90;99.90;;;;;;4900766;29;21008;-69
2021/07/27 13:03:14;;;;;;;7.20;6.77;;;25.80;99.90;;;;;;4897523;29;20518;-69
2021/07/27 13:05:40;;;;;;;7.90;7.40;;;25.80;99.90;;;;;;4898652;29;20946;-69
2021/07/27 13:08:07;;;;;;;8.27;7.67;;;25.80;99.90;;;;;;4916130;29;20520;-71
2021/07/27 13:10:34;;;;;;;8.23;7.40;;;25.90;99.90;;;;;;4917017;29;21038;-68
2021/07/27 13:13:02;;;;;;;7.83;7.37;;;26.10;99.90;;;;;;4916430;29;20495;-69
2021/07/27 13:15:28;;;;;;;7.27;6.77;;;26.40;99.90;;;;;;4909729;29;20770;-69
2021/07/27 13:17:57;;;;;;;10.37;8.03;;;26.40;99.90;;;;;;4915518;29;20982;-69
2021/07/27 13:20:25;;;;;;;8.03;7.13;;;26.60;99.90;;;;;;4916129;29;20472;-69
2021/07/27 13:22:52;;;;;;;7.77;7.13;;;26.60;99.90;;;;;;4909541;29;20491;-69
2021/07/27 13:25:19;;;;;;;6.97;6.57;;;26.60;99.90;;;;;;4916267;29;20471;-69
2021/07/27 13:27:45;;;;;;;14.97;8.03;;;26.50;99.90;;;;;;4916397;29;20479;-70
2021/07/27 13:30:13;;;;;;;6.40;5.90;;;26.40;99.90;;;;;;4916680;29;20541;-69
2021/07/27 13:32:40;;;;;;;7.80;7.27;;;26.40;99.90;;;;;;4916157;29;20498;-70
2021/07/27 13:35:08;;;;;;;6.97;6.47;;;26.50;99.90;;;;;;4913915;29;20475;-69
2021/07/27 13:37:35;;;;;;;7.77;7.23;;;26.40;99.90;;;;;;4913969;29;20537;-69
2021/07/27 13:40:01;;;;;;;6.90;6.40;;;26.30;99.90;;;;;;4903675;29;20463;-68
2021/07/27 13:42:28;;;;;;;7.07;6.67;;;26.40;99.90;;;;;;4915941;29;20553;-69
2021/07/27 13:44:54;;;;;;;5.90;5.60;;;26.40;99.90;;;;;;4915669;29;20482;-68
2021/07/27 13:47:23;;;;;;;7.00;6.50;;;26.50;99.90;;;;;;4915711;29;20478;-68
2021/07/27 13:49:49;;;;;;;6.53;6.03;;;26.50;99.90;;;;;;4914827;29;20566;-69
2021/07/27 13:52:16;;;;;;;6.10;5.87;;;26.50;99.90;;;;;;4915392;29;20494;-70
2021/07/27 13:54:43;;;;;;;6.90;6.27;;;26.50;99.90;;;;;;4903841;29;20562;-70
2021/07/27 13:57:11;;;;;;;6.30;5.90;;;26.50;99.90;;;;;;4915914;29;20470;-70
2021/07/27 13:59:39;;;;;;;6.17;5.87;;;26.50;99.90;;;;;;4915838;29;20811;-69
2021/07/27 14:02:06;;;;;;;6.57;6.23;;;26.50;99.90;;;;;;4915232;29;20491;-68
2021/07/27 14:04:36;;;;;;;6.30;6.00;;;26.30;99.90;;;;;;4915387;29;20598;-69
2021/07/27 14:07:03;;;;;;;6.70;6.30;;;26.30;99.90;;;;;;4915494;29;20498;-70
2021/07/27 14:09:29;;;;;;;7.30;6.63;;;26.40;99.90;;;;;;4915250;29;20479;-69
2021/07/27 14:11:56;;;;;;;7.60;7.10;;;26.30;99.90;;;;;;4909954;29;20511;-70
2021/07/27 14:14:23;;;;;;;7.60;7.00;;;26.30;99.90;;;;;;4905774;29;20462;-70
2021/07/27 14:16:50;;;;;;;9.20;7.40;;;26.30;99.90;;;;;;4915873;29;20463;-73
2021/07/27 14:19:16;;;;;;;7.63;6.87;;;26.20;99.90;;;;;;4915369;29;20459;-69
2021/07/27 14:21:44;;;;;;;7.90;7.30;;;26.20;99.90;;;;;;4915565;29;20994;-69
2021/07/27 14:24:11;;;;;;;8.70;8.00;;;26.20;99.90;;;;;;4914749;29;20509;-69
2021/07/27 14:26:38;;;;;;;8.70;7.97;;;26.10;99.90;;;;;;4914481;29;20467;-72
2021/07/27 14:29:04;;;;;;;7.40;6.80;;;26.00;99.90;;;;;;4904754;29;21043;-69
2021/07/27 14:31:31;;;;;;;8.50;7.90;;;26.00;99.90;;;;;;4915486;29;20529;-70
2021/07/27 14:33:58;;;;;;;8.73;8.03;;;26.10;99.90;;;;;;4915148;29;20530;-70
2021/07/27 14:36:25;;;;;;;7.47;6.97;;;26.20;99.90;;;;;;4913151;29;21002;-71
2021/07/27 14:38:53;;;;;;;9.60;8.80;;;26.30;99.90;;;;;;4909447;29;20462;-70
2021/07/27 14:41:20;;;;;;;8.00;7.50;;;26.20;99.90;;;;;;4914457;29;20505;-70
2021/07/27 14:43:47;;;;;;;8.87;8.17;;;26.30;99.90;;;;;;4912698;29;20522;-70
2021/07/27 14:46:14;;;;;;;9.13;8.33;;;26.30;99.90;;;;;;4913923;29;20897;-70
2021/07/27 14:48:41;;;;;;;8.33;7.80;;;26.40;99.90;;;;;;4914862;29;20478;-69
2021/07/27 14:51:08;;;;;;;10.53;9.40;;;26.50;99.90;;;;;;4915056;29;20541;-69
2021/07/27 14:53:35;;;;;;;8.60;8.00;;;26.50;99.90;;;;;;4914207;29;20478;-70
2021/07/27 14:56:03;;;;;;;8.90;8.27;;;26.70;99.90;;;;;;4915376;29;20497;-70
2021/07/27 14:58:30;;;;;;;8.90;8.20;;;26.90;99.90;;;;;;4910803;29;24163;-70
2021/07/27 15:00:57;;;;;;;9.80;9.10;;;27.00;99.90;;;;;;4913565;29;20607;-70
2021/07/27 15:03:24;;;;;;;8.70;8.10;;;27.00;99.90;;;;;;4911747;29;20570;-69
2021/07/27 15:05:51;;;;;;;9.03;8.23;;;27.00;99.90;;;;;;4912437;29;20828;-68
2021/07/27 15:08:17;;;;;;;8.83;7.80;;;26.90;99.90;;;;;;4917748;29;20548;-68
2021/07/27 15:10:44;;;;;;;8.90;8.20;;;26.90;99.90;;;;;;4918568;29;20538;-69
2021/07/27 15:13:12;;;;;;;9.37;8.60;;;26.60;99.90;;;;;;4918432;29;20569;-69
2021/07/27 15:15:40;;;;;;;9.17;8.53;;;26.50;99.90;;;;;;4918203;29;20986;-68
2021/07/27 15:18:07;;;;;;;8.90;8.10;;;26.40;99.90;;;;;;4904663;29;20555;-69
2021/07/27 15:20:34;;;;;;;9.30;8.70;;;26.40;99.90;;;;;;4912398;29;20486;-69
2021/07/27 15:23:00;;;;;;;9.03;8.37;;;26.30;99.90;;;;;;4918794;29;20470;-69
2021/07/27 15:25:27;;;;;;;10.37;9.57;;;26.40;99.90;;;;;;4912235;29;20467;-69
2021/07/27 15:27:54;;;;;;;8.40;7.80;;;26.50;99.90;;;;;;4909320;29;20463;-70
2021/07/27 15:30:22;;;;;;;9.77;8.87;;;26.60;99.90;;;;;;4918131;29;20538;-68
2021/07/27 15:32:49;;;;;;;9.70;9.00;;;26.70;99.90;;;;;;4902083;29;20501;-70
2021/07/27 15:35:16;;;;;;;10.23;9.43;;;26.80;99.90;;;;;;4916988;29;20474;-70
2021/07/27 15:37:42;;;;;;;10.30;9.40;;;26.80;99.90;;;;;;4918754;29;20466;-70
2021/07/27 15:40:10;;;;;;;9.40;8.70;;;26.90;99.90;;;;;;4917646;29;20621;-69
2021/07/27 15:42:37;;;;;;;9.10;8.40;;;27.00;99.90;;;;;;4917817;29;20478;-70
2021/07/27 15:45:04;;;;;;;10.43;9.60;;;27.00;99.90;;;;;;4917112;29;20939;-71
2021/07/27 15:47:32;;;;;;;10.37;9.67;;;26.80;99.90;;;;;;4918562;29;20466;-71
2021/07/27 15:49:59;;;;;;;9.80;9.17;;;26.70;99.90;;;;;;4917290;29;20467;-71
2021/07/27 15:52:25;;;;;;;10.67;9.87;;;26.80;99.90;;;;;;4915708;29;20491;-70
2021/07/27 15:54:52;;;;;;;11.30;9.10;;;26.70;99.90;;;;;;4903944;29;20471;-71
2021/07/27 15:57:19;;;;;;;10.60;9.80;;;26.70;99.90;;;;;;4916792;29;20482;-71
2021/07/27 15:59:46;;;;;;;9.90;8.83;;;26.80;99.90;;;;;;4917437;29;20522;-71
2021/07/27 16:02:12;;;;;;;8.83;8.13;;;26.90;99.90;;;;;;4917077;29;20498;-71
2021/07/27 16:04:40;;;;;;;9.83;9.03;;;26.90;99.90;;;;;;4911706;29;20492;-70
2021/07/27 16:07:07;;;;;;;10.40;9.60;;;27.10;99.90;;;;;;4915072;29;20470;-71
2021/07/27 16:09:34;;;;;;;10.40;9.50;;;26.90;99.90;;;;;;4914104;29;20467;-70
2021/07/27 16:12:00;;;;;;;9.67;8.87;;;27.00;99.90;;;;;;4912931;29;20501;-70
2021/07/27 16:14:27;;;;;;;11.30;10.30;;;27.10;99.90;;;;;;4915779;29;20471;-70
2021/07/27 16:16:54;;;;;;;10.23;9.33;;;27.10;99.90;;;;;;4916066;29;20466;-70
2021/07/27 16:19:21;;;;;;;11.07;9.90;;;27.10;99.90;;;;;;4915562;29;20471;-71
2021/07/27 16:21:50;;;;;;;11.50;9.17;;;26.90;99.90;;;;;;4916939;29;20482;-71
2021/07/27 16:24:17;;;;;;;9.73;9.03;;;26.70;99.90;;;;;;4916505;29;20816;-71
2021/07/27 16:26:43;;;;;;;9.13;8.50;;;26.60;99.90;;;;;;4916731;29;20470;-70
2021/07/27 16:29:10;;;;;;;10.47;9.57;;;26.60;99.90;;;;;;4917534;29;20469;-70
2021/07/27 16:31:37;;;;;;;10.33;9.20;;;26.50;99.90;;;;;;4917087;29;20494;-71
2021/07/27 16:34:03;;;;;;;10.93;10.07;;;26.40;99.90;;;;;;4903414;29;20804;-71
2021/07/27 16:36:30;;;;;;;10.50;9.77;;;26.20;99.90;;;;;;4912111;29;20454;-70
2021/07/27 16:38:58;;;;;;;10.40;9.07;;;26.20;99.90;;;;;;4916700;29;20497;-70
2021/07/27 16:41:25;;;;;;;11.10;10.20;;;26.10;99.90;;;;;;4916861;29;20976;-71
2021/07/27 16:43:52;;;;;;;10.50;9.60;;;26.30;99.90;;;;;;4905739;29;20466;-70
2021/07/27 16:46:18;;;;;;;11.07;10.07;;;26.40;99.90;;;;;;4917263;29;20569;-69
2021/07/27 16:48:45;;;;;;;10.67;9.60;;;26.40;99.90;;;;;;4916361;29;20474;-69